sensor_id;sensor_type;location;lat;lon;timestamp;P1;durP1;ratioP1;P2;durP2;ratioP2
52226;SDS011;38190;59.928;10.446;2022-07-18T00:01:34;2.15;;;0.82;;
52226;SDS011;38190;59.928;10.446;2022-07-18T00:04:35;0.90;;;0.75;;
52226;SDS011;38190;59.928;10.446;2022-07-18T00:07:36;1.60;;;1.02;;
52226;SDS011;38190;59.928;10.446;2022-07-18T00:10:36;1.08;;;0.65;;
52226;SDS011;38190;59.928;10.446;2022-07-18T00:13:37;1.90;;;1.45;;
52226;SDS011;38190;59.928;10.446;2022-07-18T00:16:37;1.92;;;0.85;;
52226;SDS011;38190;59.928;10.446;2022-07-18T00:19:38;3.22;;;1.55;;
52226;SDS011;38190;59.928;10.446;2022-07-18T00:22:39;1.88;;;1.15;;
52226;SDS011;38190;59.928;10.446;2022-07-18T00:25:39;1.65;;;1.35;;
52226;SDS011;38190;59.928;10.446;2022-07-18T00:28:39;0.75;;;0.50;;
52226;SDS011;38190;59.928;10.446;2022-07-18T00:31:40;1.63;;;0.63;;
52226;SDS011;38190;59.928;10.446;2022-07-18T00:34:40;2.67;;;0.85;;
52226;SDS011;38190;59.928;10.446;2022-07-18T00:37:41;1.85;;;1.17;;
52226;SDS011;38190;59.928;10.446;2022-07-18T00:40:41;0.63;;;0.63;;
52226;SDS011;38190;59.928;10.446;2022-07-18T00:43:42;0.90;;;0.68;;
52226;SDS011;38190;59.928;10.446;2022-07-18T00:46:43;4.65;;;1.00;;
52226;SDS011;38190;59.928;10.446;2022-07-18T00:49:43;1.63;;;1.05;;
52226;SDS011;38190;59.928;10.446;2022-07-18T00:52:44;0.77;;;0.60;;
52226;SDS011;38190;59.928;10.446;2022-07-18T00:55:45;0.70;;;0.30;;
52226;SDS011;38190;59.928;10.446;2022-07-18T00:58:46;1.80;;;0.88;;
52226;SDS011;38190;59.928;10.446;2022-07-18T01:01:47;1.13;;;0.68;;
52226;SDS011;38190;59.928;10.446;2022-07-18T01:04:48;1.48;;;0.70;;
52226;SDS011;38190;59.928;10.446;2022-07-18T01:07:49;1.92;;;0.73;;
52226;SDS011;38190;59.928;10.446;2022-07-18T01:10:51;1.50;;;0.93;;
52226;SDS011;38190;59.928;10.446;2022-07-18T01:13:54;1.08;;;0.75;;
52226;SDS011;38190;59.928;10.446;2022-07-18T01:16:54;1.25;;;0.80;;
52226;SDS011;38190;59.928;10.446;2022-07-18T01:19:55;1.67;;;1.05;;
52226;SDS011;38190;59.928;10.446;2022-07-18T01:22:56;1.98;;;0.90;;
52226;SDS011;38190;59.928;10.446;2022-07-18T01:25:56;1.17;;;0.57;;
52226;SDS011;38190;59.928;10.446;2022-07-18T01:28:57;1.65;;;0.82;;
52226;SDS011;38190;59.928;10.446;2022-07-18T01:32:07;0.75;;;0.57;;
52226;SDS011;38190;59.928;10.446;2022-07-18T01:35:08;0.93;;;0.65;;
52226;SDS011;38190;59.928;10.446;2022-07-18T01:38:09;3.08;;;0.90;;
52226;SDS011;38190;59.928;10.446;2022-07-18T01:41:09;1.08;;;0.70;;
52226;SDS011;38190;59.928;10.446;2022-07-18T01:44:10;1.60;;;1.00;;
52226;SDS011;38190;59.928;10.446;2022-07-18T01:47:10;1.48;;;0.88;;
52226;SDS011;38190;59.928;10.446;2022-07-18T01:50:12;2.17;;;0.60;;
52226;SDS011;38190;59.928;10.446;2022-07-18T01:53:13;1.60;;;0.77;;
52226;SDS011;38190;59.928;10.446;2022-07-18T01:56:13;3.55;;;0.98;;
52226;SDS011;38190;59.928;10.446;2022-07-18T01:59:14;2.75;;;1.27;;
52226;SDS011;38190;59.928;10.446;2022-07-18T02:02:15;1.65;;;1.15;;
52226;SDS011;38190;59.928;10.446;2022-07-18T02:05:16;0.95;;;0.50;;
52226;SDS011;38190;59.928;10.446;2022-07-18T02:08:16;1.15;;;0.88;;
52226;SDS011;38190;59.928;10.446;2022-07-18T02:11:17;1.20;;;0.70;;
52226;SDS011;38190;59.928;10.446;2022-07-18T02:14:17;1.55;;;0.82;;
52226;SDS011;38190;59.928;10.446;2022-07-18T02:17:18;0.77;;;0.52;;
52226;SDS011;38190;59.928;10.446;2022-07-18T02:20:19;1.00;;;0.73;;
52226;SDS011;38190;59.928;10.446;2022-07-18T02:23:19;1.23;;;1.02;;
52226;SDS011;38190;59.928;10.446;2022-07-18T02:26:20;1.25;;;0.68;;
52226;SDS011;38190;59.928;10.446;2022-07-18T02:29:20;0.57;;;0.50;;
52226;SDS011;38190;59.928;10.446;2022-07-18T02:32:21;0.50;;;0.35;;
52226;SDS011;38190;59.928;10.446;2022-07-18T02:35:23;3.40;;;1.25;;
52226;SDS011;38190;59.928;10.446;2022-07-18T02:38:23;1.02;;;0.55;;
52226;SDS011;38190;59.928;10.446;2022-07-18T02:41:24;1.50;;;0.85;;
52226;SDS011;38190;59.928;10.446;2022-07-18T02:44:24;1.38;;;0.52;;
52226;SDS011;38190;59.928;10.446;2022-07-18T02:47:25;1.38;;;1.10;;
52226;SDS011;38190;59.928;10.446;2022-07-18T02:50:25;0.40;;;0.38;;
52226;SDS011;38190;59.928;10.446;2022-07-18T02:53:26;1.17;;;0.85;;
52226;SDS011;38190;59.928;10.446;2022-07-18T02:56:26;1.05;;;0.82;;
52226;SDS011;38190;59.928;10.446;2022-07-18T02:59:27;2.45;;;1.58;;
52226;SDS011;38190;59.928;10.446;2022-07-18T03:02:28;0.95;;;0.75;;
52226;SDS011;38190;59.928;10.446;2022-07-18T03:05:28;1.02;;;0.60;;
52226;SDS011;38190;59.928;10.446;2022-07-18T03:08:29;2.35;;;1.20;;
52226;SDS011;38190;59.928;10.446;2022-07-18T03:11:30;1.20;;;1.10;;
52226;SDS011;38190;59.928;10.446;2022-07-18T03:14:30;0.90;;;0.63;;
52226;SDS011;38190;59.928;10.446;2022-07-18T03:17:30;2.65;;;1.63;;
52226;SDS011;38190;59.928;10.446;2022-07-18T03:20:31;1.08;;;0.85;;
52226;SDS011;38190;59.928;10.446;2022-07-18T03:23:32;1.83;;;0.77;;
52226;SDS011;38190;59.928;10.446;2022-07-18T03:26:32;1.10;;;0.93;;
52226;SDS011;38190;59.928;10.446;2022-07-18T03:29:33;3.28;;;1.25;;
52226;SDS011;38190;59.928;10.446;2022-07-18T03:32:33;1.73;;;1.40;;
52226;SDS011;38190;59.928;10.446;2022-07-18T03:35:34;3.15;;;1.35;;
52226;SDS011;38190;59.928;10.446;2022-07-18T03:38:34;1.08;;;0.70;;
52226;SDS011;38190;59.928;10.446;2022-07-18T03:41:36;1.77;;;1.02;;
52226;SDS011;38190;59.928;10.446;2022-07-18T03:44:37;1.25;;;0.80;;
52226;SDS011;38190;59.928;10.446;2022-07-18T03:47:38;1.17;;;0.73;;
52226;SDS011;38190;59.928;10.446;2022-07-18T03:50:38;3.08;;;1.13;;
52226;SDS011;38190;59.928;10.446;2022-07-18T03:53:39;0.65;;;0.60;;
52226;SDS011;38190;59.928;10.446;2022-07-18T03:56:39;1.15;;;0.65;;
52226;SDS011;38190;59.928;10.446;2022-07-18T03:59:40;1.00;;;0.45;;
52226;SDS011;38190;59.928;10.446;2022-07-18T04:02:41;0.88;;;0.68;;
52226;SDS011;38190;59.928;10.446;2022-07-18T04:05:43;1.63;;;0.90;;
52226;SDS011;38190;59.928;10.446;2022-07-18T04:08:44;1.42;;;1.17;;
52226;SDS011;38190;59.928;10.446;2022-07-18T04:11:44;1.33;;;0.73;;
52226;SDS011;38190;59.928;10.446;2022-07-18T04:14:45;0.82;;;0.45;;
52226;SDS011;38190;59.928;10.446;2022-07-18T04:17:46;1.17;;;0.80;;
52226;SDS011;38190;59.928;10.446;2022-07-18T04:20:46;1.60;;;0.52;;
52226;SDS011;38190;59.928;10.446;2022-07-18T04:23:47;5.22;;;1.08;;
52226;SDS011;38190;59.928;10.446;2022-07-18T04:26:47;2.20;;;1.35;;
52226;SDS011;38190;59.928;10.446;2022-07-18T04:29:48;2.33;;;0.85;;
52226;SDS011;38190;59.928;10.446;2022-07-18T04:32:48;1.40;;;0.80;;
52226;SDS011;38190;59.928;10.446;2022-07-18T04:35:49;0.52;;;0.47;;
52226;SDS011;38190;59.928;10.446;2022-07-18T04:38:50;1.75;;;1.20;;
52226;SDS011;38190;59.928;10.446;2022-07-18T04:41:50;1.73;;;1.20;;
52226;SDS011;38190;59.928;10.446;2022-07-18T04:44:51;1.50;;;0.63;;
52226;SDS011;38190;59.928;10.446;2022-07-18T04:47:52;1.98;;;0.70;;
52226;SDS011;38190;59.928;10.446;2022-07-18T04:50:55;2.30;;;0.95;;
52226;SDS011;38190;59.928;10.446;2022-07-18T04:53:55;2.63;;;1.15;;
52226;SDS011;38190;59.928;10.446;2022-07-18T04:56:56;2.85;;;1.38;;
52226;SDS011;38190;59.928;10.446;2022-07-18T04:59:56;1.92;;;1.45;;
52226;SDS011;38190;59.928;10.446;2022-07-18T05:02:57;1.40;;;1.02;;
52226;SDS011;38190;59.928;10.446;2022-07-18T05:05:58;0.82;;;0.47;;
52226;SDS011;38190;59.928;10.446;2022-07-18T05:08:58;0.55;;;0.43;;
52226;SDS011;38190;59.928;10.446;2022-07-18T05:11:59;1.77;;;1.30;;
52226;SDS011;38190;59.928;10.446;2022-07-18T05:14:59;2.33;;;1.38;;
52226;SDS011;38190;59.928;10.446;2022-07-18T05:17:59;1.73;;;1.40;;
52226;SDS011;38190;59.928;10.446;2022-07-18T05:21:00;1.92;;;0.90;;
52226;SDS011;38190;59.928;10.446;2022-07-18T05:24:00;1.48;;;1.30;;
52226;SDS011;38190;59.928;10.446;2022-07-18T05:27:01;4.38;;;1.67;;
52226;SDS011;38190;59.928;10.446;2022-07-18T05:30:03;2.53;;;1.58;;
52226;SDS011;38190;59.928;10.446;2022-07-18T05:33:06;1.65;;;0.93;;
52226;SDS011;38190;59.928;10.446;2022-07-18T05:36:06;3.00;;;1.30;;
52226;SDS011;38190;59.928;10.446;2022-07-18T05:39:07;3.38;;;1.83;;
52226;SDS011;38190;59.928;10.446;2022-07-18T05:42:09;2.05;;;0.98;;
52226;SDS011;38190;59.928;10.446;2022-07-18T05:45:10;2.10;;;0.90;;
52226;SDS011;38190;59.928;10.446;2022-07-18T05:48:11;1.98;;;1.02;;
52226;SDS011;38190;59.928;10.446;2022-07-18T05:51:11;1.65;;;1.20;;
52226;SDS011;38190;59.928;10.446;2022-07-18T05:54:12;2.17;;;1.10;;
52226;SDS011;38190;59.928;10.446;2022-07-18T05:57:18;1.20;;;0.70;;
52226;SDS011;38190;59.928;10.446;2022-07-18T06:00:18;1.13;;;0.85;;
52226;SDS011;38190;59.928;10.446;2022-07-18T06:03:19;4.50;;;1.65;;
52226;SDS011;38190;59.928;10.446;2022-07-18T06:06:20;2.33;;;1.20;;
52226;SDS011;38190;59.928;10.446;2022-07-18T06:09:20;1.50;;;0.93;;
52226;SDS011;38190;59.928;10.446;2022-07-18T06:12:21;1.55;;;0.73;;
52226;SDS011;38190;59.928;10.446;2022-07-18T06:15:22;1.30;;;0.93;;
52226;SDS011;38190;59.928;10.446;2022-07-18T06:18:23;0.98;;;0.73;;
52226;SDS011;38190;59.928;10.446;2022-07-18T06:21:23;1.23;;;0.80;;
52226;SDS011;38190;59.928;10.446;2022-07-18T06:24:24;1.63;;;0.95;;
52226;SDS011;38190;59.928;10.446;2022-07-18T06:27:24;1.38;;;0.95;;
52226;SDS011;38190;59.928;10.446;2022-07-18T06:30:25;2.28;;;1.42;;
52226;SDS011;38190;59.928;10.446;2022-07-18T06:33:25;1.65;;;0.90;;
52226;SDS011;38190;59.928;10.446;2022-07-18T06:36:26;1.67;;;0.98;;
52226;SDS011;38190;59.928;10.446;2022-07-18T06:39:26;2.10;;;1.13;;
52226;SDS011;38190;59.928;10.446;2022-07-18T06:42:26;1.33;;;0.73;;
52226;SDS011;38190;59.928;10.446;2022-07-18T06:45:27;1.67;;;1.20;;
52226;SDS011;38190;59.928;10.446;2022-07-18T06:48:27;1.05;;;0.60;;
52226;SDS011;38190;59.928;10.446;2022-07-18T06:51:33;2.90;;;1.17;;
52226;SDS011;38190;59.928;10.446;2022-07-18T06:54:33;2.13;;;1.25;;
52226;SDS011;38190;59.928;10.446;2022-07-18T06:57:36;1.30;;;1.10;;
52226;SDS011;38190;59.928;10.446;2022-07-18T07:00:37;1.38;;;1.13;;
52226;SDS011;38190;59.928;10.446;2022-07-18T07:03:37;1.48;;;1.10;;
52226;SDS011;38190;59.928;10.446;2022-07-18T07:06:38;1.58;;;0.95;;
52226;SDS011;38190;59.928;10.446;2022-07-18T07:09:38;1.52;;;1.17;;
52226;SDS011;38190;59.928;10.446;2022-07-18T07:12:40;2.00;;;0.95;;
52226;SDS011;38190;59.928;10.446;2022-07-18T07:15:41;1.92;;;1.10;;
52226;SDS011;38190;59.928;10.446;2022-07-18T07:18:43;2.03;;;1.15;;
52226;SDS011;38190;59.928;10.446;2022-07-18T07:21:43;2.25;;;1.02;;
52226;SDS011;38190;59.928;10.446;2022-07-18T07:24:44;1.25;;;0.88;;
52226;SDS011;38190;59.928;10.446;2022-07-18T07:27:44;1.10;;;0.82;;
52226;SDS011;38190;59.928;10.446;2022-07-18T07:30:45;1.58;;;1.23;;
52226;SDS011;38190;59.928;10.446;2022-07-18T07:33:45;0.88;;;0.68;;
52226;SDS011;38190;59.928;10.446;2022-07-18T07:36:46;1.85;;;0.93;;
52226;SDS011;38190;59.928;10.446;2022-07-18T07:39:46;2.30;;;0.85;;
52226;SDS011;38190;59.928;10.446;2022-07-18T07:42:50;1.83;;;0.60;;
52226;SDS011;38190;59.928;10.446;2022-07-18T07:45:51;2.20;;;1.20;;
52226;SDS011;38190;59.928;10.446;2022-07-18T07:48:53;3.55;;;1.10;;
52226;SDS011;38190;59.928;10.446;2022-07-18T07:51:53;1.67;;;1.08;;
52226;SDS011;38190;59.928;10.446;2022-07-18T07:54:53;1.55;;;0.82;;
52226;SDS011;38190;59.928;10.446;2022-07-18T07:57:54;1.52;;;0.85;;
52226;SDS011;38190;59.928;10.446;2022-07-18T08:00:55;1.88;;;0.80;;
52226;SDS011;38190;59.928;10.446;2022-07-18T08:03:55;2.70;;;1.30;;
52226;SDS011;38190;59.928;10.446;2022-07-18T08:06:56;1.38;;;0.80;;
52226;SDS011;38190;59.928;10.446;2022-07-18T08:09:57;1.55;;;1.05;;
52226;SDS011;38190;59.928;10.446;2022-07-18T08:12:58;2.22;;;1.20;;
52226;SDS011;38190;59.928;10.446;2022-07-18T08:15:58;1.38;;;0.88;;
52226;SDS011;38190;59.928;10.446;2022-07-18T08:18:59;0.77;;;0.47;;
52226;SDS011;38190;59.928;10.446;2022-07-18T08:21:59;0.90;;;0.65;;
52226;SDS011;38190;59.928;10.446;2022-07-18T08:25:00;2.20;;;1.20;;
52226;SDS011;38190;59.928;10.446;2022-07-18T08:28:02;0.98;;;0.73;;
52226;SDS011;38190;59.928;10.446;2022-07-18T08:31:04;1.52;;;0.77;;
52226;SDS011;38190;59.928;10.446;2022-07-18T08:34:04;1.13;;;0.60;;
52226;SDS011;38190;59.928;10.446;2022-07-18T08:37:05;2.35;;;1.35;;
52226;SDS011;38190;59.928;10.446;2022-07-18T08:40:06;2.13;;;1.05;;
52226;SDS011;38190;59.928;10.446;2022-07-18T08:43:08;1.15;;;0.68;;
52226;SDS011;38190;59.928;10.446;2022-07-18T08:46:08;1.40;;;0.80;;
52226;SDS011;38190;59.928;10.446;2022-07-18T08:49:10;1.35;;;1.02;;
52226;SDS011;38190;59.928;10.446;2022-07-18T08:52:12;1.95;;;1.02;;
52226;SDS011;38190;59.928;10.446;2022-07-18T08:55:14;1.98;;;1.00;;
52226;SDS011;38190;59.928;10.446;2022-07-18T08:58:15;2.00;;;1.40;;
52226;SDS011;38190;59.928;10.446;2022-07-18T09:01:17;1.83;;;1.35;;
52226;SDS011;38190;59.928;10.446;2022-07-18T09:04:34;2.03;;;1.33;;
52226;SDS011;38190;59.928;10.446;2022-07-18T09:07:38;10.30;;;1.52;;
52226;SDS011;38190;59.928;10.446;2022-07-18T09:10:55;1.95;;;0.75;;
52226;SDS011;38190;59.928;10.446;2022-07-18T09:13:57;0.90;;;0.80;;
52226;SDS011;38190;59.928;10.446;2022-07-18T09:17:01;1.65;;;0.93;;
52226;SDS011;38190;59.928;10.446;2022-07-18T09:20:31;0.98;;;0.68;;
52226;SDS011;38190;59.928;10.446;2022-07-18T09:23:33;2.10;;;1.10;;
52226;SDS011;38190;59.928;10.446;2022-07-18T09:29:36;1.58;;;1.10;;
52226;SDS011;38190;59.928;10.446;2022-07-18T09:32:37;0.68;;;0.57;;
52226;SDS011;38190;59.928;10.446;2022-07-18T09:35:43;1.05;;;0.90;;
52226;SDS011;38190;59.928;10.446;2022-07-18T09:38:49;1.80;;;0.98;;
52226;SDS011;38190;59.928;10.446;2022-07-18T09:41:49;1.95;;;1.23;;
52226;SDS011;38190;59.928;10.446;2022-07-18T09:44:56;2.30;;;0.93;;
52226;SDS011;38190;59.928;10.446;2022-07-18T09:51:06;1.75;;;0.70;;
52226;SDS011;38190;59.928;10.446;2022-07-18T09:54:07;3.40;;;1.42;;
52226;SDS011;38190;59.928;10.446;2022-07-18T09:57:08;1.83;;;0.95;;
52226;SDS011;38190;59.928;10.446;2022-07-18T10:00:09;2.22;;;1.33;;
52226;SDS011;38190;59.928;10.446;2022-07-18T10:03:10;1.95;;;0.85;;
52226;SDS011;38190;59.928;10.446;2022-07-18T10:06:11;3.03;;;0.95;;
52226;SDS011;38190;59.928;10.446;2022-07-18T10:09:12;1.80;;;0.55;;
52226;SDS011;38190;59.928;10.446;2022-07-18T10:12:14;1.30;;;0.82;;
52226;SDS011;38190;59.928;10.446;2022-07-18T10:15:15;2.15;;;1.27;;
52226;SDS011;38190;59.928;10.446;2022-07-18T10:18:16;0.88;;;0.57;;
52226;SDS011;38190;59.928;10.446;2022-07-18T10:21:20;1.40;;;0.77;;
52226;SDS011;38190;59.928;10.446;2022-07-18T10:24:21;3.45;;;1.75;;
52226;SDS011;38190;59.928;10.446;2022-07-18T10:27:25;1.35;;;1.02;;
52226;SDS011;38190;59.928;10.446;2022-07-18T10:30:36;0.95;;;0.65;;
52226;SDS011;38190;59.928;10.446;2022-07-18T10:33:45;2.63;;;1.00;;
52226;SDS011;38190;59.928;10.446;2022-07-18T10:39:51;2.00;;;1.40;;
52226;SDS011;38190;59.928;10.446;2022-07-18T10:50:03;2.33;;;0.88;;
52226;SDS011;38190;59.928;10.446;2022-07-18T10:53:05;1.40;;;1.00;;
52226;SDS011;38190;59.928;10.446;2022-07-18T10:56:05;1.98;;;1.20;;
52226;SDS011;38190;59.928;10.446;2022-07-18T10:59:19;3.92;;;0.85;;
52226;SDS011;38190;59.928;10.446;2022-07-18T11:02:31;3.03;;;1.55;;
52226;SDS011;38190;59.928;10.446;2022-07-18T11:05:41;2.25;;;1.42;;
52226;SDS011;38190;59.928;10.446;2022-07-18T11:08:43;1.38;;;0.95;;
52226;SDS011;38190;59.928;10.446;2022-07-18T11:15:22;2.00;;;1.13;;
52226;SDS011;38190;59.928;10.446;2022-07-18T11:18:22;1.70;;;1.10;;
52226;SDS011;38190;59.928;10.446;2022-07-18T11:21:24;1.45;;;0.77;;
52226;SDS011;38190;59.928;10.446;2022-07-18T11:24:34;2.80;;;1.65;;
52226;SDS011;38190;59.928;10.446;2022-07-18T11:27:39;1.33;;;0.98;;
52226;SDS011;38190;59.928;10.446;2022-07-18T11:33:44;1.77;;;1.42;;
52226;SDS011;38190;59.928;10.446;2022-07-18T11:36:47;2.35;;;1.10;;
52226;SDS011;38190;59.928;10.446;2022-07-18T11:39:48;1.30;;;0.77;;
52226;SDS011;38190;59.928;10.446;2022-07-18T11:42:48;1.70;;;1.00;;
52226;SDS011;38190;59.928;10.446;2022-07-18T11:45:59;1.70;;;1.17;;
52226;SDS011;38190;59.928;10.446;2022-07-18T11:49:01;2.83;;;1.45;;
52226;SDS011;38190;59.928;10.446;2022-07-18T11:52:06;1.70;;;1.00;;
52226;SDS011;38190;59.928;10.446;2022-07-18T11:55:07;3.00;;;0.88;;
52226;SDS011;38190;59.928;10.446;2022-07-18T11:58:09;1.08;;;0.82;;
52226;SDS011;38190;59.928;10.446;2022-07-18T12:01:11;1.50;;;0.90;;
52226;SDS011;38190;59.928;10.446;2022-07-18T12:04:18;1.85;;;1.35;;
52226;SDS011;38190;59.928;10.446;2022-07-18T12:07:23;2.22;;;1.13;;
52226;SDS011;38190;59.928;10.446;2022-07-18T12:10:25;2.67;;;1.13;;
52226;SDS011;38190;59.928;10.446;2022-07-18T12:13:26;2.05;;;1.27;;
52226;SDS011;38190;59.928;10.446;2022-07-18T12:16:28;1.02;;;0.60;;
52226;SDS011;38190;59.928;10.446;2022-07-18T12:19:37;2.13;;;1.20;;
52226;SDS011;38190;59.928;10.446;2022-07-18T12:26:27;1.83;;;1.33;;
52226;SDS011;38190;59.928;10.446;2022-07-18T12:29:28;2.15;;;1.60;;
52226;SDS011;38190;59.928;10.446;2022-07-18T12:35:48;1.92;;;1.23;;
52226;SDS011;38190;59.928;10.446;2022-07-18T12:39:01;3.33;;;1.45;;
52226;SDS011;38190;59.928;10.446;2022-07-18T12:42:02;2.70;;;1.20;;
52226;SDS011;38190;59.928;10.446;2022-07-18T12:45:03;1.98;;;1.35;;
52226;SDS011;38190;59.928;10.446;2022-07-18T12:48:05;6.47;;;2.50;;
52226;SDS011;38190;59.928;10.446;2022-07-18T12:51:08;2.55;;;1.48;;
52226;SDS011;38190;59.928;10.446;2022-07-18T12:54:10;1.90;;;1.15;;
52226;SDS011;38190;59.928;10.446;2022-07-18T12:57:11;2.83;;;1.90;;
52226;SDS011;38190;59.928;10.446;2022-07-18T13:00:11;1.80;;;1.48;;
52226;SDS011;38190;59.928;10.446;2022-07-18T13:03:12;2.42;;;1.55;;
52226;SDS011;38190;59.928;10.446;2022-07-18T13:06:13;2.15;;;1.00;;
52226;SDS011;38190;59.928;10.446;2022-07-18T13:09:14;1.65;;;1.45;;
52226;SDS011;38190;59.928;10.446;2022-07-18T13:12:14;2.60;;;1.15;;
52226;SDS011;38190;59.928;10.446;2022-07-18T13:15:15;1.83;;;1.55;;
52226;SDS011;38190;59.928;10.446;2022-07-18T13:18:16;4.53;;;1.27;;
52226;SDS011;38190;59.928;10.446;2022-07-18T13:21:17;1.90;;;1.35;;
52226;SDS011;38190;59.928;10.446;2022-07-18T13:24:18;0.82;;;0.77;;
52226;SDS011;38190;59.928;10.446;2022-07-18T13:27:19;2.47;;;1.48;;
52226;SDS011;38190;59.928;10.446;2022-07-18T13:30:19;1.23;;;0.85;;
52226;SDS011;38190;59.928;10.446;2022-07-18T13:33:20;2.60;;;1.67;;
52226;SDS011;38190;59.928;10.446;2022-07-18T13:36:20;2.60;;;1.73;;
52226;SDS011;38190;59.928;10.446;2022-07-18T13:39:21;1.88;;;1.35;;
52226;SDS011;38190;59.928;10.446;2022-07-18T13:42:22;3.00;;;1.92;;
52226;SDS011;38190;59.928;10.446;2022-07-18T13:45:23;1.40;;;1.08;;
52226;SDS011;38190;59.928;10.446;2022-07-18T13:48:23;2.45;;;1.33;;
52226;SDS011;38190;59.928;10.446;2022-07-18T13:51:24;3.20;;;1.80;;
52226;SDS011;38190;59.928;10.446;2022-07-18T13:54:25;3.40;;;2.10;;
52226;SDS011;38190;59.928;10.446;2022-07-18T13:57:25;2.55;;;1.65;;
52226;SDS011;38190;59.928;10.446;2022-07-18T14:00:26;5.13;;;1.85;;
52226;SDS011;38190;59.928;10.446;2022-07-18T14:03:26;4.72;;;1.95;;
52226;SDS011;38190;59.928;10.446;2022-07-18T14:06:26;5.85;;;1.77;;
52226;SDS011;38190;59.928;10.446;2022-07-18T14:09:27;4.53;;;2.15;;
52226;SDS011;38190;59.928;10.446;2022-07-18T14:12:27;2.83;;;1.88;;
52226;SDS011;38190;59.928;10.446;2022-07-18T14:15:28;4.18;;;2.28;;
52226;SDS011;38190;59.928;10.446;2022-07-18T14:18:29;2.88;;;2.25;;
52226;SDS011;38190;59.928;10.446;2022-07-18T14:21:29;3.50;;;2.08;;
52226;SDS011;38190;59.928;10.446;2022-07-18T14:24:30;5.05;;;1.92;;
52226;SDS011;38190;59.928;10.446;2022-07-18T14:27:30;6.15;;;2.60;;
52226;SDS011;38190;59.928;10.446;2022-07-18T14:30:31;3.97;;;2.55;;
52226;SDS011;38190;59.928;10.446;2022-07-18T14:33:32;3.38;;;2.60;;
52226;SDS011;38190;59.928;10.446;2022-07-18T14:36:32;2.40;;;1.85;;
52226;SDS011;38190;59.928;10.446;2022-07-18T14:39:33;2.40;;;2.10;;
52226;SDS011;38190;59.928;10.446;2022-07-18T14:42:33;10.90;;;3.50;;
52226;SDS011;38190;59.928;10.446;2022-07-18T14:45:34;3.00;;;2.15;;
52226;SDS011;38190;59.928;10.446;2022-07-18T14:48:34;4.30;;;2.40;;
52226;SDS011;38190;59.928;10.446;2022-07-18T14:51:35;4.18;;;2.53;;
52226;SDS011;38190;59.928;10.446;2022-07-18T14:54:35;2.63;;;2.03;;
52226;SDS011;38190;59.928;10.446;2022-07-18T14:57:36;4.93;;;2.70;;
52226;SDS011;38190;59.928;10.446;2022-07-18T15:00:37;3.38;;;2.60;;
52226;SDS011;38190;59.928;10.446;2022-07-18T15:03:37;4.60;;;2.85;;
52226;SDS011;38190;59.928;10.446;2022-07-18T15:06:38;3.33;;;2.20;;
52226;SDS011;38190;59.928;10.446;2022-07-18T15:09:40;5.85;;;3.28;;
52226;SDS011;38190;59.928;10.446;2022-07-18T15:12:40;2.83;;;2.33;;
52226;SDS011;38190;59.928;10.446;2022-07-18T15:15:41;6.30;;;3.17;;
52226;SDS011;38190;59.928;10.446;2022-07-18T15:18:41;3.13;;;1.92;;
52226;SDS011;38190;59.928;10.446;2022-07-18T15:21:42;3.63;;;2.50;;
52226;SDS011;38190;59.928;10.446;2022-07-18T15:24:42;8.25;;;2.95;;
52226;SDS011;38190;59.928;10.446;2022-07-18T15:27:43;4.53;;;2.67;;
52226;SDS011;38190;59.928;10.446;2022-07-18T15:30:43;11.38;;;3.40;;
52226;SDS011;38190;59.928;10.446;2022-07-18T15:33:44;3.83;;;2.65;;
52226;SDS011;38190;59.928;10.446;2022-07-18T15:36:44;7.03;;;2.83;;
52226;SDS011;38190;59.928;10.446;2022-07-18T15:39:45;3.90;;;3.17;;
52226;SDS011;38190;59.928;10.446;2022-07-18T15:42:45;7.28;;;3.38;;
52226;SDS011;38190;59.928;10.446;2022-07-18T15:45:46;6.00;;;3.13;;
52226;SDS011;38190;59.928;10.446;2022-07-18T15:48:46;5.10;;;2.92;;
52226;SDS011;38190;59.928;10.446;2022-07-18T15:51:47;5.55;;;3.67;;
52226;SDS011;38190;59.928;10.446;2022-07-18T15:54:48;4.85;;;3.38;;
52226;SDS011;38190;59.928;10.446;2022-07-18T15:57:49;5.03;;;3.53;;
52226;SDS011;38190;59.928;10.446;2022-07-18T16:00:49;7.30;;;3.25;;
52226;SDS011;38190;59.928;10.446;2022-07-18T16:03:50;7.60;;;3.92;;
52226;SDS011;38190;59.928;10.446;2022-07-18T16:06:50;5.30;;;4.00;;
52226;SDS011;38190;59.928;10.446;2022-07-18T16:09:51;7.32;;;4.18;;
52226;SDS011;38190;59.928;10.446;2022-07-18T16:12:52;14.75;;;4.30;;
52226;SDS011;38190;59.928;10.446;2022-07-18T16:15:52;5.35;;;3.72;;
52226;SDS011;38190;59.928;10.446;2022-07-18T16:18:53;8.02;;;4.28;;
52226;SDS011;38190;59.928;10.446;2022-07-18T16:21:53;14.82;;;4.07;;
52226;SDS011;38190;59.928;10.446;2022-07-18T16:24:54;22.30;;;5.32;;
52226;SDS011;38190;59.928;10.446;2022-07-18T16:27:54;8.20;;;4.30;;
52226;SDS011;38190;59.928;10.446;2022-07-18T16:30:55;6.15;;;3.40;;
52226;SDS011;38190;59.928;10.446;2022-07-18T16:33:55;6.65;;;4.65;;
52226;SDS011;38190;59.928;10.446;2022-07-18T16:36:56;10.90;;;4.60;;
52226;SDS011;38190;59.928;10.446;2022-07-18T16:39:57;10.48;;;4.70;;
52226;SDS011;38190;59.928;10.446;2022-07-18T16:42:57;5.30;;;4.13;;
52226;SDS011;38190;59.928;10.446;2022-07-18T16:45:58;8.23;;;4.00;;
52226;SDS011;38190;59.928;10.446;2022-07-18T16:48:59;7.13;;;4.07;;
52226;SDS011;38190;59.928;10.446;2022-07-18T16:51:59;7.43;;;3.92;;
52226;SDS011;38190;59.928;10.446;2022-07-18T16:55:02;9.30;;;4.50;;
52226;SDS011;38190;59.928;10.446;2022-07-18T16:58:03;11.52;;;4.13;;
52226;SDS011;38190;59.928;10.446;2022-07-18T17:01:05;8.40;;;3.75;;
52226;SDS011;38190;59.928;10.446;2022-07-18T17:04:06;7.80;;;3.75;;
52226;SDS011;38190;59.928;10.446;2022-07-18T17:07:07;8.25;;;4.25;;
52226;SDS011;38190;59.928;10.446;2022-07-18T17:10:08;11.13;;;5.03;;
52226;SDS011;38190;59.928;10.446;2022-07-18T17:13:10;9.90;;;3.83;;
52226;SDS011;38190;59.928;10.446;2022-07-18T17:16:10;7.90;;;4.38;;
52226;SDS011;38190;59.928;10.446;2022-07-18T17:19:11;6.18;;;3.45;;
52226;SDS011;38190;59.928;10.446;2022-07-18T17:22:12;7.20;;;3.85;;
52226;SDS011;38190;59.928;10.446;2022-07-18T17:25:13;8.70;;;3.60;;
52226;SDS011;38190;59.928;10.446;2022-07-18T17:28:15;6.85;;;4.38;;
52226;SDS011;38190;59.928;10.446;2022-07-18T17:31:16;11.00;;;5.28;;
52226;SDS011;38190;59.928;10.446;2022-07-18T17:34:17;11.45;;;4.28;;
52226;SDS011;38190;59.928;10.446;2022-07-18T17:37:17;6.55;;;3.70;;
52226;SDS011;38190;59.928;10.446;2022-07-18T17:40:19;12.45;;;4.60;;
52226;SDS011;38190;59.928;10.446;2022-07-18T17:43:20;9.68;;;4.20;;
52226;SDS011;38190;59.928;10.446;2022-07-18T17:46:21;6.75;;;5.38;;
52226;SDS011;38190;59.928;10.446;2022-07-18T17:49:30;13.35;;;5.18;;
52226;SDS011;38190;59.928;10.446;2022-07-18T17:52:30;7.72;;;5.03;;
52226;SDS011;38190;59.928;10.446;2022-07-18T17:55:31;4.55;;;3.03;;
52226;SDS011;38190;59.928;10.446;2022-07-18T17:58:32;12.68;;;4.72;;
52226;SDS011;38190;59.928;10.446;2022-07-18T18:01:32;11.50;;;5.00;;
52226;SDS011;38190;59.928;10.446;2022-07-18T18:04:33;11.88;;;4.80;;
52226;SDS011;38190;59.928;10.446;2022-07-18T18:07:33;5.78;;;4.18;;
52226;SDS011;38190;59.928;10.446;2022-07-18T18:10:35;7.93;;;4.63;;
52226;SDS011;38190;59.928;10.446;2022-07-18T18:13:35;5.03;;;4.50;;
52226;SDS011;38190;59.928;10.446;2022-07-18T18:16:36;9.02;;;5.00;;
52226;SDS011;38190;59.928;10.446;2022-07-18T18:19:36;11.07;;;5.15;;
52226;SDS011;38190;59.928;10.446;2022-07-18T18:22:37;7.10;;;3.72;;
52226;SDS011;38190;59.928;10.446;2022-07-18T18:25:38;12.88;;;5.35;;